Paradox, New York
Current Conditions -  °F | °C
As of 9:55 PM on Friday 21 Nov 2014 (Local Time) from K6B0 Reporting Station
Clear Clear  
Wind Chill: 17°   Ceiling: Unl
Heat Index: 17°   Visibility: 10mi
Dew Point:   Wind: 0mph
Humidity: 68%   Direction: NA
Pressure: 30.36"   Gusts: NA
Location:  43.89°N, 73.65°W
Report Text: K6B0 220255Z AUTO 00000KT 10SM CLR M08/M13 A3036 RMK AO2 T10831132
Loading
Personal Weather Stations






























Interactive Weather Map New forecast layout! Learn more

10-Day Weather Forecast

Advertisements
Track Severe Weather on mobile